MUGM/NBW METAR and TAF weather

Enter ICAO airport designator
Station Type Date Time Source
MUGM METAR 2020/01/18 12:56 UTC NOAA

MUGM 181256Z 35005KT 9999 FEW040 22/20 A3014 RMK SLP208 T02220200


Station Type Date Time Source
MUGM Decoded METAR 2020/01/18 12:56 UTC NOAA

GUANTANAMO BAY, CUBA NAVAL, CU, Cuba (MUGM) 19-55N 075-12W 23M
Jan 18, 2020 - 07:56 AM EST / 2020.01.18 1256 UTC
Wind: from the N (350 degrees) at 6 MPH (5 KT):0
Visibility: greater than 7 mile(s):0
Sky conditions: mostly clear
Temperature: 72.0 F (22.2 C)
Dew Point: 68.0 F (20.0 C)
Relative Humidity: 87%
Pressure (altimeter): 30.14 in. Hg (1020 hPa)
ob: MUGM 181256Z 35005KT 9999 FEW040 22/20 A3014 RMK SLP208 T02220200
cycle: 13

Station Type Date Time Source
MUGM TAF 2020/01/18 07:34 UTC NOAA

TAF MUGM 1807/1907 36009KT 9999 FEW040 QNH3011INS
BECMG 1815/1817 06020G30KT 9999 SCT040 QNH3006INS
BECMG 1902/1904 05014KT 9999 SCT025 QNH3009INS T19/1809Z T30/1818Z FN00218

Example: see airport list